sensor_id;sensor_type;location;lat;lon;timestamp;pressure;altitude;pressure_sealevel;temperature;humidity
21824;BME280;11074;48.596;9.238;2023-07-24T00:02:25;97557.19;;;21.73;62.66
21824;BME280;11074;48.596;9.238;2023-07-24T00:04:50;97564.56;;;21.72;62.83
21824;BME280;11074;48.596;9.238;2023-07-24T00:07:16;97560.81;;;21.77;62.94
21824;BME280;11074;48.596;9.238;2023-07-24T00:09:42;97546.75;;;21.75;63.17
21824;BME280;11074;48.596;9.238;2023-07-24T00:12:08;97539.63;;;21.70;63.33
21824;BME280;11074;48.596;9.238;2023-07-24T00:14:33;97541.00;;;21.77;62.99
21824;BME280;11074;48.596;9.238;2023-07-24T00:16:59;97533.16;;;21.75;63.52
21824;BME280;11074;48.596;9.238;2023-07-24T00:19:25;97533.38;;;21.70;63.17
21824;BME280;11074;48.596;9.238;2023-07-24T00:21:50;97542.78;;;21.60;63.46
21824;BME280;11074;48.596;9.238;2023-07-24T00:24:16;97542.31;;;21.58;64.45
21824;BME280;11074;48.596;9.238;2023-07-24T00:26:41;97552.75;;;21.56;63.77
21824;BME280;11074;48.596;9.238;2023-07-24T00:29:07;97542.66;;;21.57;63.37
21824;BME280;11074;48.596;9.238;2023-07-24T00:31:32;97544.38;;;21.49;63.34
21824;BME280;11074;48.596;9.238;2023-07-24T00:33:58;97552.44;;;21.58;62.77
21824;BME280;11074;48.596;9.238;2023-07-24T00:36:26;97537.13;;;21.65;62.73
21824;BME280;11074;48.596;9.238;2023-07-24T00:38:52;97547.44;;;21.60;63.08
21824;BME280;11074;48.596;9.238;2023-07-24T00:41:17;97540.41;;;21.59;63.69
21824;BME280;11074;48.596;9.238;2023-07-24T00:43:43;97538.03;;;21.57;63.20
21824;BME280;11074;48.596;9.238;2023-07-24T00:46:11;97539.72;;;21.62;63.52
21824;BME280;11074;48.596;9.238;2023-07-24T00:48:38;97518.63;;;21.59;63.26
21824;BME280;11074;48.596;9.238;2023-07-24T00:51:05;97527.81;;;21.54;63.18
21824;BME280;11074;48.596;9.238;2023-07-24T00:53:31;97532.13;;;21.55;62.93
21824;BME280;11074;48.596;9.238;2023-07-24T00:55:57;97537.41;;;21.40;63.26
21824;BME280;11074;48.596;9.238;2023-07-24T00:58:23;97536.16;;;21.37;63.28
21824;BME280;11074;48.596;9.238;2023-07-24T01:00:50;97528.00;;;21.37;63.42
21824;BME280;11074;48.596;9.238;2023-07-24T01:03:15;97530.41;;;21.39;63.51
21824;BME280;11074;48.596;9.238;2023-07-24T01:05:41;97516.78;;;21.27;63.42
21824;BME280;11074;48.596;9.238;2023-07-24T01:08:07;97520.00;;;21.08;63.97
21824;BME280;11074;48.596;9.238;2023-07-24T01:10:33;97508.47;;;21.11;64.02
21824;BME280;11074;48.596;9.238;2023-07-24T01:13:13;97496.13;;;21.13;64.07
21824;BME280;11074;48.596;9.238;2023-07-24T01:16:09;97496.53;;;21.03;64.08
21824;BME280;11074;48.596;9.238;2023-07-24T01:18:38;97495.72;;;20.91;64.79
21824;BME280;11074;48.596;9.238;2023-07-24T01:21:08;97484.38;;;20.89;64.61
21824;BME280;11074;48.596;9.238;2023-07-24T01:26:23;97484.75;;;20.67;65.53
21824;BME280;11074;48.596;9.238;2023-07-24T01:28:49;97481.81;;;20.72;65.69
21824;BME280;11074;48.596;9.238;2023-07-24T01:31:15;97478.22;;;20.80;65.12
21824;BME280;11074;48.596;9.238;2023-07-24T01:33:42;97483.22;;;20.78;65.69
21824;BME280;11074;48.596;9.238;2023-07-24T01:36:09;97475.28;;;20.73;65.61
21824;BME280;11074;48.596;9.238;2023-07-24T01:38:36;97486.72;;;20.78;65.73
21824;BME280;11074;48.596;9.238;2023-07-24T01:41:03;97494.38;;;20.64;66.22
21824;BME280;11074;48.596;9.238;2023-07-24T01:43:30;97493.22;;;20.86;65.43
21824;BME280;11074;48.596;9.238;2023-07-24T01:45:58;97490.94;;;20.88;65.09
21824;BME280;11074;48.596;9.238;2023-07-24T01:48:24;97486.25;;;20.76;65.28
21824;BME280;11074;48.596;9.238;2023-07-24T01:50:49;97476.69;;;20.58;65.74
21824;BME280;11074;48.596;9.238;2023-07-24T01:53:16;97484.19;;;20.73;65.43
21824;BME280;11074;48.596;9.238;2023-07-24T01:55:41;97473.16;;;20.78;65.04
21824;BME280;11074;48.596;9.238;2023-07-24T01:58:07;97478.69;;;20.82;64.70
21824;BME280;11074;48.596;9.238;2023-07-24T02:00:34;97479.03;;;20.80;64.79
21824;BME280;11074;48.596;9.238;2023-07-24T02:02:59;97469.66;;;20.90;64.56
21824;BME280;11074;48.596;9.238;2023-07-24T02:05:26;97457.50;;;20.75;64.69
21824;BME280;11074;48.596;9.238;2023-07-24T02:07:51;97459.88;;;20.77;64.73
21824;BME280;11074;48.596;9.238;2023-07-24T02:10:17;97452.09;;;20.87;64.44
21824;BME280;11074;48.596;9.238;2023-07-24T02:12:43;97456.72;;;20.87;64.52
21824;BME280;11074;48.596;9.238;2023-07-24T02:15:09;97447.22;;;20.81;64.83
21824;BME280;11074;48.596;9.238;2023-07-24T02:17:34;97457.59;;;20.67;65.12
21824;BME280;11074;48.596;9.238;2023-07-24T02:20:00;97447.38;;;20.64;65.29
21824;BME280;11074;48.596;9.238;2023-07-24T02:22:26;97445.69;;;20.59;65.15
21824;BME280;11074;48.596;9.238;2023-07-24T02:24:54;97448.72;;;20.58;64.91
21824;BME280;11074;48.596;9.238;2023-07-24T02:27:29;97447.47;;;20.55;64.95
21824;BME280;11074;48.596;9.238;2023-07-24T02:29:57;97432.41;;;20.58;64.51
21824;BME280;11074;48.596;9.238;2023-07-24T02:32:23;97431.50;;;20.53;64.91
21824;BME280;11074;48.596;9.238;2023-07-24T02:34:50;97418.34;;;20.43;65.14
21824;BME280;11074;48.596;9.238;2023-07-24T02:37:16;97422.59;;;20.32;65.45
21824;BME280;11074;48.596;9.238;2023-07-24T02:39:41;97426.03;;;20.41;65.18
21824;BME280;11074;48.596;9.238;2023-07-24T02:42:07;97431.59;;;20.45;65.55
21824;BME280;11074;48.596;9.238;2023-07-24T02:44:34;97419.94;;;20.44;65.39
21824;BME280;11074;48.596;9.238;2023-07-24T02:47:00;97423.59;;;20.48;65.29
21824;BME280;11074;48.596;9.238;2023-07-24T02:49:26;97419.94;;;20.44;65.18
21824;BME280;11074;48.596;9.238;2023-07-24T02:51:51;97413.59;;;20.40;65.57
21824;BME280;11074;48.596;9.238;2023-07-24T02:54:17;97419.19;;;20.15;66.21
21824;BME280;11074;48.596;9.238;2023-07-24T02:56:43;97404.53;;;19.95;66.62
21824;BME280;11074;48.596;9.238;2023-07-24T02:59:08;97399.69;;;20.01;66.30
21824;BME280;11074;48.596;9.238;2023-07-24T03:01:34;97402.00;;;19.90;66.92
21824;BME280;11074;48.596;9.238;2023-07-24T03:03:59;97398.09;;;20.00;66.48
21824;BME280;11074;48.596;9.238;2023-07-24T03:06:26;97396.00;;;19.84;66.91
21824;BME280;11074;48.596;9.238;2023-07-24T03:08:52;97389.56;;;19.89;67.08
21824;BME280;11074;48.596;9.238;2023-07-24T03:11:17;97392.94;;;19.86;66.85
21824;BME280;11074;48.596;9.238;2023-07-24T03:13:43;97391.88;;;19.99;66.57
21824;BME280;11074;48.596;9.238;2023-07-24T03:16:08;97396.22;;;20.12;66.17
21824;BME280;11074;48.596;9.238;2023-07-24T03:18:34;97398.63;;;20.14;66.07
21824;BME280;11074;48.596;9.238;2023-07-24T03:21:00;97396.78;;;20.06;66.12
21824;BME280;11074;48.596;9.238;2023-07-24T03:23:26;97386.59;;;20.03;66.41
21824;BME280;11074;48.596;9.238;2023-07-24T03:25:51;97394.97;;;20.10;65.82
21824;BME280;11074;48.596;9.238;2023-07-24T03:28:17;97398.03;;;20.08;66.11
21824;BME280;11074;48.596;9.238;2023-07-24T03:30:43;97413.97;;;20.10;66.03
21824;BME280;11074;48.596;9.238;2023-07-24T03:33:08;97398.44;;;19.98;66.13
21824;BME280;11074;48.596;9.238;2023-07-24T03:35:34;97405.25;;;20.04;66.46
21824;BME280;11074;48.596;9.238;2023-07-24T03:38:00;97397.69;;;20.10;66.47
21824;BME280;11074;48.596;9.238;2023-07-24T03:40:26;97408.88;;;20.08;67.77
21824;BME280;11074;48.596;9.238;2023-07-24T03:42:51;97401.16;;;19.98;67.78
21824;BME280;11074;48.596;9.238;2023-07-24T03:45:17;97405.44;;;19.78;67.80
21824;BME280;11074;48.596;9.238;2023-07-24T03:47:43;97396.69;;;19.73;67.74
21824;BME280;11074;48.596;9.238;2023-07-24T03:50:09;97405.91;;;19.80;67.21
21824;BME280;11074;48.596;9.238;2023-07-24T03:52:35;97393.22;;;19.93;66.86
21824;BME280;11074;48.596;9.238;2023-07-24T03:55:01;97379.66;;;19.93;67.39
21824;BME280;11074;48.596;9.238;2023-07-24T03:57:26;97379.16;;;19.91;67.34
21824;BME280;11074;48.596;9.238;2023-07-24T03:59:52;97390.91;;;20.04;66.81
21824;BME280;11074;48.596;9.238;2023-07-24T04:02:18;97389.22;;;20.11;66.67
21824;BME280;11074;48.596;9.238;2023-07-24T04:04:44;97390.03;;;20.12;67.04
21824;BME280;11074;48.596;9.238;2023-07-24T04:07:10;97385.06;;;20.14;67.08
21824;BME280;11074;48.596;9.238;2023-07-24T04:09:35;97390.34;;;20.10;66.94
21824;BME280;11074;48.596;9.238;2023-07-24T04:12:01;97390.13;;;20.15;66.97
21824;BME280;11074;48.596;9.238;2023-07-24T04:14:27;97374.50;;;20.12;66.71
21824;BME280;11074;48.596;9.238;2023-07-24T04:16:52;97382.44;;;20.17;66.54
21824;BME280;11074;48.596;9.238;2023-07-24T04:19:19;97368.56;;;20.19;66.85
21824;BME280;11074;48.596;9.238;2023-07-24T04:21:44;97365.19;;;20.22;67.32
21824;BME280;11074;48.596;9.238;2023-07-24T04:24:10;97358.03;;;20.17;68.07
21824;BME280;11074;48.596;9.238;2023-07-24T04:26:36;97350.97;;;20.25;67.74
21824;BME280;11074;48.596;9.238;2023-07-24T04:29:01;97343.78;;;20.20;67.85
21824;BME280;11074;48.596;9.238;2023-07-24T04:31:27;97334.41;;;20.18;68.03
21824;BME280;11074;48.596;9.238;2023-07-24T04:33:52;97339.03;;;20.17;68.04
21824;BME280;11074;48.596;9.238;2023-07-24T04:36:18;97345.59;;;20.16;68.33
21824;BME280;11074;48.596;9.238;2023-07-24T04:38:44;97332.25;;;20.23;68.13
21824;BME280;11074;48.596;9.238;2023-07-24T04:41:11;97335.66;;;20.20;68.35
21824;BME280;11074;48.596;9.238;2023-07-24T04:43:37;97336.78;;;20.19;68.19
21824;BME280;11074;48.596;9.238;2023-07-24T04:46:03;97341.06;;;20.20;68.71
21824;BME280;11074;48.596;9.238;2023-07-24T04:48:29;97343.94;;;20.24;68.21
21824;BME280;11074;48.596;9.238;2023-07-24T04:50:55;97333.72;;;20.21;68.34
21824;BME280;11074;48.596;9.238;2023-07-24T04:53:25;97336.44;;;20.21;68.24
21824;BME280;11074;48.596;9.238;2023-07-24T04:55:50;97332.63;;;20.22;68.57
21824;BME280;11074;48.596;9.238;2023-07-24T04:58:16;97347.75;;;20.23;67.93
21824;BME280;11074;48.596;9.238;2023-07-24T05:00:43;97361.03;;;20.24;68.32
21824;BME280;11074;48.596;9.238;2023-07-24T05:03:10;97356.91;;;20.18;68.59
21824;BME280;11074;48.596;9.238;2023-07-24T05:05:38;97351.47;;;20.18;68.68
21824;BME280;11074;48.596;9.238;2023-07-24T05:08:04;97355.31;;;20.17;68.77
21824;BME280;11074;48.596;9.238;2023-07-24T05:10:37;97363.28;;;20.22;68.88
21824;BME280;11074;48.596;9.238;2023-07-24T05:13:03;97361.03;;;20.24;68.91
21824;BME280;11074;48.596;9.238;2023-07-24T05:15:29;97356.41;;;20.25;68.61
21824;BME280;11074;48.596;9.238;2023-07-24T05:17:54;97360.03;;;20.08;69.57
21824;BME280;11074;48.596;9.238;2023-07-24T05:20:20;97350.22;;;20.16;69.36
21824;BME280;11074;48.596;9.238;2023-07-24T05:22:46;97344.78;;;20.16;68.81
21824;BME280;11074;48.596;9.238;2023-07-24T05:25:11;97343.03;;;20.20;68.83
21824;BME280;11074;48.596;9.238;2023-07-24T05:27:37;97346.00;;;20.27;68.90
21824;BME280;11074;48.596;9.238;2023-07-24T05:30:04;97357.31;;;20.29;68.98
21824;BME280;11074;48.596;9.238;2023-07-24T05:32:30;97372.13;;;20.31;68.68
21824;BME280;11074;48.596;9.238;2023-07-24T05:34:56;97380.75;;;20.33;68.78
21824;BME280;11074;48.596;9.238;2023-07-24T05:37:21;97390.34;;;20.31;69.15
21824;BME280;11074;48.596;9.238;2023-07-24T05:39:47;97396.06;;;20.38;69.04
21824;BME280;11074;48.596;9.238;2023-07-24T05:42:13;97394.13;;;20.38;69.12
21824;BME280;11074;48.596;9.238;2023-07-24T05:44:38;97394.44;;;20.37;69.17
21824;BME280;11074;48.596;9.238;2023-07-24T05:47:04;97396.94;;;20.42;69.13
21824;BME280;11074;48.596;9.238;2023-07-24T05:49:29;97403.84;;;20.39;69.04
21824;BME280;11074;48.596;9.238;2023-07-24T05:51:55;97398.09;;;20.41;69.29
21824;BME280;11074;48.596;9.238;2023-07-24T05:54:22;97406.25;;;20.41;69.02
21824;BME280;11074;48.596;9.238;2023-07-24T05:56:48;97412.00;;;20.39;69.33
21824;BME280;11074;48.596;9.238;2023-07-24T05:59:14;97410.88;;;20.40;69.44
21824;BME280;11074;48.596;9.238;2023-07-24T06:01:40;97411.53;;;20.37;69.62
21824;BME280;11074;48.596;9.238;2023-07-24T06:04:05;97420.47;;;20.38;69.69
21824;BME280;11074;48.596;9.238;2023-07-24T06:06:33;97420.13;;;20.39;69.56
21824;BME280;11074;48.596;9.238;2023-07-24T06:08:59;97415.50;;;20.40;69.47
21824;BME280;11074;48.596;9.238;2023-07-24T06:11:24;97419.81;;;20.41;69.31
21824;BME280;11074;48.596;9.238;2023-07-24T06:13:52;97413.13;;;20.38;69.82
21824;BME280;11074;48.596;9.238;2023-07-24T06:16:18;97406.69;;;20.43;69.53
21824;BME280;11074;48.596;9.238;2023-07-24T06:18:44;97406.09;;;20.37;69.69
21824;BME280;11074;48.596;9.238;2023-07-24T06:21:09;97405.09;;;20.42;69.60
21824;BME280;11074;48.596;9.238;2023-07-24T06:23:35;97384.63;;;20.44;69.23
21824;BME280;11074;48.596;9.238;2023-07-24T06:26:01;97368.13;;;20.49;69.07
21824;BME280;11074;48.596;9.238;2023-07-24T06:28:26;97360.44;;;20.51;68.54
21824;BME280;11074;48.596;9.238;2023-07-24T06:30:54;97358.63;;;20.55;68.63
21824;BME280;11074;48.596;9.238;2023-07-24T06:33:20;97357.38;;;20.53;68.37
21824;BME280;11074;48.596;9.238;2023-07-24T06:35:50;97343.94;;;20.57;68.26
21824;BME280;11074;48.596;9.238;2023-07-24T06:38:16;97343.28;;;20.60;67.83
21824;BME280;11074;48.596;9.238;2023-07-24T06:40:42;97343.72;;;20.62;67.73
21824;BME280;11074;48.596;9.238;2023-07-24T06:43:08;97340.34;;;20.65;67.71
21824;BME280;11074;48.596;9.238;2023-07-24T06:45:33;97365.22;;;20.67;67.30
21824;BME280;11074;48.596;9.238;2023-07-24T06:47:59;97354.81;;;20.69;67.57
21824;BME280;11074;48.596;9.238;2023-07-24T06:50:27;97351.44;;;20.72;67.03
21824;BME280;11074;48.596;9.238;2023-07-24T06:52:53;97357.44;;;20.77;66.69
21824;BME280;11074;48.596;9.238;2023-07-24T06:55:19;97366.16;;;20.83;66.81
21824;BME280;11074;48.596;9.238;2023-07-24T06:57:48;97353.03;;;20.85;67.08
21824;BME280;11074;48.596;9.238;2023-07-24T07:00:14;97347.38;;;20.90;66.42
21824;BME280;11074;48.596;9.238;2023-07-24T07:02:39;97342.06;;;20.93;66.80
21824;BME280;11074;48.596;9.238;2023-07-24T07:05:05;97348.38;;;20.97;65.93
21824;BME280;11074;48.596;9.238;2023-07-24T07:07:31;97365.25;;;21.03;66.07
21824;BME280;11074;48.596;9.238;2023-07-24T07:09:57;97372.28;;;21.04;66.32
21824;BME280;11074;48.596;9.238;2023-07-24T07:12:23;97392.25;;;21.08;66.16
21824;BME280;11074;48.596;9.238;2023-07-24T07:14:48;97380.91;;;21.06;66.21
21824;BME280;11074;48.596;9.238;2023-07-24T07:17:14;97386.81;;;21.08;66.22
21824;BME280;11074;48.596;9.238;2023-07-24T07:19:40;97397.22;;;21.06;66.34
21824;BME280;11074;48.596;9.238;2023-07-24T07:22:06;97394.50;;;21.06;66.55
21824;BME280;11074;48.596;9.238;2023-07-24T07:24:31;97391.13;;;21.09;66.42
21824;BME280;11074;48.596;9.238;2023-07-24T07:26:57;97395.88;;;21.12;66.03
21824;BME280;11074;48.596;9.238;2023-07-24T07:29:23;97390.09;;;21.13;66.60
21824;BME280;11074;48.596;9.238;2023-07-24T07:31:48;97391.47;;;21.20;66.00
21824;BME280;11074;48.596;9.238;2023-07-24T07:34:14;97398.59;;;21.24;66.57
21824;BME280;11074;48.596;9.238;2023-07-24T07:36:40;97388.75;;;21.32;65.71
21824;BME280;11074;48.596;9.238;2023-07-24T07:39:05;97407.56;;;21.37;65.88
21824;BME280;11074;48.596;9.238;2023-07-24T07:41:31;97395.78;;;21.45;66.31
21824;BME280;11074;48.596;9.238;2023-07-24T07:43:57;97399.03;;;21.50;65.84
21824;BME280;11074;48.596;9.238;2023-07-24T07:46:23;97397.69;;;21.56;66.13
21824;BME280;11074;48.596;9.238;2023-07-24T07:48:49;97398.59;;;21.60;66.60
21824;BME280;11074;48.596;9.238;2023-07-24T07:51:15;97399.84;;;21.63;66.37
21824;BME280;11074;48.596;9.238;2023-07-24T07:53:40;97405.06;;;21.68;65.83
21824;BME280;11074;48.596;9.238;2023-07-24T07:56:06;97407.09;;;21.71;66.12
21824;BME280;11074;48.596;9.238;2023-07-24T07:58:32;97420.34;;;21.72;65.67
21824;BME280;11074;48.596;9.238;2023-07-24T08:00:58;97417.19;;;21.70;65.59
21824;BME280;11074;48.596;9.238;2023-07-24T08:03:23;97419.09;;;21.70;66.54
21824;BME280;11074;48.596;9.238;2023-07-24T08:05:49;97421.03;;;21.69;66.30
21824;BME280;11074;48.596;9.238;2023-07-24T08:08:14;97425.66;;;21.69;66.74
21824;BME280;11074;48.596;9.238;2023-07-24T08:10:40;97403.91;;;21.69;66.86
21824;BME280;11074;48.596;9.238;2023-07-24T08:13:06;97412.53;;;21.71;67.06
21824;BME280;11074;48.596;9.238;2023-07-24T08:15:36;97404.00;;;21.72;67.70
21824;BME280;11074;48.596;9.238;2023-07-24T08:18:06;97413.88;;;21.77;69.15
21824;BME280;11074;48.596;9.238;2023-07-24T08:20:36;97404.56;;;21.78;68.78
21824;BME280;11074;48.596;9.238;2023-07-24T08:23:03;97390.28;;;21.81;69.26
21824;BME280;11074;48.596;9.238;2023-07-24T08:25:29;97415.56;;;21.82;69.38
21824;BME280;11074;48.596;9.238;2023-07-24T08:27:54;97400.59;;;21.88;68.25
21824;BME280;11074;48.596;9.238;2023-07-24T08:30:20;97385.19;;;21.92;68.49
21824;BME280;11074;48.596;9.238;2023-07-24T08:32:45;97384.16;;;21.96;68.05
21824;BME280;11074;48.596;9.238;2023-07-24T08:35:11;97392.19;;;22.05;68.04
21824;BME280;11074;48.596;9.238;2023-07-24T08:37:37;97372.00;;;22.06;69.01
21824;BME280;11074;48.596;9.238;2023-07-24T08:40:03;97363.22;;;22.12;69.19
21824;BME280;11074;48.596;9.238;2023-07-24T08:42:31;97356.28;;;22.15;70.29
21824;BME280;11074;48.596;9.238;2023-07-24T08:44:58;97347.00;;;22.16;68.66
21824;BME280;11074;48.596;9.238;2023-07-24T08:47:24;97347.44;;;22.18;71.47
21824;BME280;11074;48.596;9.238;2023-07-24T08:49:51;97341.97;;;22.18;72.76
21824;BME280;11074;48.596;9.238;2023-07-24T08:52:19;97353.38;;;22.08;71.59
21824;BME280;11074;48.596;9.238;2023-07-24T08:54:47;97333.28;;;22.12;72.70
21824;BME280;11074;48.596;9.238;2023-07-24T08:57:13;97325.22;;;22.16;76.15
21824;BME280;11074;48.596;9.238;2023-07-24T08:59:39;97326.44;;;22.18;76.83
21824;BME280;11074;48.596;9.238;2023-07-24T09:02:05;97321.78;;;22.19;76.43
21824;BME280;11074;48.596;9.238;2023-07-24T09:04:31;97323.97;;;22.13;76.63
21824;BME280;11074;48.596;9.238;2023-07-24T09:06:57;97332.03;;;22.10;75.44
21824;BME280;11074;48.596;9.238;2023-07-24T09:09:30;97328.19;;;22.11;74.70
21824;BME280;11074;48.596;9.238;2023-07-24T09:11:57;97329.31;;;22.10;73.80
21824;BME280;11074;48.596;9.238;2023-07-24T09:14:28;97324.78;;;22.14;73.07
21824;BME280;11074;48.596;9.238;2023-07-24T09:17:10;97318.72;;;22.20;74.83
21824;BME280;11074;48.596;9.238;2023-07-24T09:19:37;97311.44;;;22.24;74.30
21824;BME280;11074;48.596;9.238;2023-07-24T09:22:15;97311.09;;;22.26;72.36
21824;BME280;11074;48.596;9.238;2023-07-24T09:24:56;97317.44;;;22.30;71.57
21824;BME280;11074;48.596;9.238;2023-07-24T09:27:28;97313.56;;;22.31;71.35
21824;BME280;11074;48.596;9.238;2023-07-24T09:29:55;97303.09;;;22.33;72.19
21824;BME280;11074;48.596;9.238;2023-07-24T09:32:24;97303.81;;;22.30;72.50
21824;BME280;11074;48.596;9.238;2023-07-24T09:34:50;97291.31;;;22.29;73.25
21824;BME280;11074;48.596;9.238;2023-07-24T09:37:30;97285.50;;;22.30;75.20
21824;BME280;11074;48.596;9.238;2023-07-24T09:39:56;97278.13;;;22.31;77.13
21824;BME280;11074;48.596;9.238;2023-07-24T09:42:34;97290.97;;;22.30;76.63
21824;BME280;11074;48.596;9.238;2023-07-24T09:45:05;97295.63;;;22.30;80.20
21824;BME280;11074;48.596;9.238;2023-07-24T09:47:31;97302.47;;;22.24;78.97
21824;BME280;11074;48.596;9.238;2023-07-24T09:49:57;97302.38;;;22.20;80.06
21824;BME280;11074;48.596;9.238;2023-07-24T09:52:27;97307.63;;;22.13;80.73
21824;BME280;11074;48.596;9.238;2023-07-24T09:57:35;97320.72;;;22.08;83.20
21824;BME280;11074;48.596;9.238;2023-07-24T10:00:02;97330.38;;;22.05;82.42
21824;BME280;11074;48.596;9.238;2023-07-24T10:02:28;97355.78;;;21.97;81.55
21824;BME280;11074;48.596;9.238;2023-07-24T10:04:55;97372.38;;;21.92;81.83
21824;BME280;11074;48.596;9.238;2023-07-24T10:07:22;97377.25;;;21.87;81.35
21824;BME280;11074;48.596;9.238;2023-07-24T10:09:50;97366.69;;;21.85;80.85
21824;BME280;11074;48.596;9.238;2023-07-24T10:12:20;97376.09;;;21.88;82.06
21824;BME280;11074;48.596;9.238;2023-07-24T10:14:47;97381.09;;;21.86;82.83
21824;BME280;11074;48.596;9.238;2023-07-24T10:17:13;97382.13;;;21.81;85.02
21824;BME280;11074;48.596;9.238;2023-07-24T10:19:41;97383.72;;;21.70;86.15
21824;BME280;11074;48.596;9.238;2023-07-24T10:22:20;97395.09;;;21.60;86.74
21824;BME280;11074;48.596;9.238;2023-07-24T10:24:47;97404.59;;;21.54;87.72
21824;BME280;11074;48.596;9.238;2023-07-24T10:27:13;97411.75;;;21.46;86.20
21824;BME280;11074;48.596;9.238;2023-07-24T10:29:39;97414.72;;;21.41;88.60
21824;BME280;11074;48.596;9.238;2023-07-24T10:32:17;97415.38;;;21.38;89.35
21824;BME280;11074;48.596;9.238;2023-07-24T10:34:43;97409.81;;;21.35;90.16
21824;BME280;11074;48.596;9.238;2023-07-24T10:37:09;97440.75;;;21.30;90.06
21824;BME280;11074;48.596;9.238;2023-07-24T10:39:39;97446.88;;;21.27;87.56
21824;BME280;11074;48.596;9.238;2023-07-24T10:42:10;97458.53;;;21.28;85.49
21824;BME280;11074;48.596;9.238;2023-07-24T10:44:37;97459.66;;;21.27;85.38
21824;BME280;11074;48.596;9.238;2023-07-24T10:47:03;97456.28;;;21.30;86.15
21824;BME280;11074;48.596;9.238;2023-07-24T10:49:29;97470.69;;;21.30;87.94
21824;BME280;11074;48.596;9.238;2023-07-24T10:51:59;97466.34;;;21.29;87.32
21824;BME280;11074;48.596;9.238;2023-07-24T10:54:25;97469.78;;;21.26;88.33
21824;BME280;11074;48.596;9.238;2023-07-24T10:56:58;97484.94;;;21.27;88.00
21824;BME280;11074;48.596;9.238;2023-07-24T10:59:37;97476.13;;;21.30;86.12
21824;BME280;11074;48.596;9.238;2023-07-24T11:02:04;97470.31;;;21.32;87.39
21824;BME280;11074;48.596;9.238;2023-07-24T11:04:30;97487.00;;;21.30;85.61
21824;BME280;11074;48.596;9.238;2023-07-24T11:06:55;97487.78;;;21.31;84.49
21824;BME280;11074;48.596;9.238;2023-07-24T11:09:34;97481.31;;;21.35;85.93
21824;BME280;11074;48.596;9.238;2023-07-24T11:11:59;97440.09;;;21.33;89.91
21824;BME280;11074;48.596;9.238;2023-07-24T11:14:25;97450.50;;;21.31;88.87
21824;BME280;11074;48.596;9.238;2023-07-24T11:16:51;97483.47;;;21.18;87.44
21824;BME280;11074;48.596;9.238;2023-07-24T11:19:26;97488.22;;;21.21;87.02
21824;BME280;11074;48.596;9.238;2023-07-24T11:21:51;97458.31;;;21.21;85.97
21824;BME280;11074;48.596;9.238;2023-07-24T11:24:17;97447.09;;;21.22;85.28
21824;BME280;11074;48.596;9.238;2023-07-24T11:26:43;97422.41;;;21.27;90.29
21824;BME280;11074;48.596;9.238;2023-07-24T11:29:12;97405.28;;;21.27;88.97
21824;BME280;11074;48.596;9.238;2023-07-24T11:31:38;97377.78;;;21.28;90.84
21824;BME280;11074;48.596;9.238;2023-07-24T11:34:05;97345.72;;;21.34;91.86
21824;BME280;11074;48.596;9.238;2023-07-24T11:36:32;97301.59;;;21.40;91.09
21824;BME280;11074;48.596;9.238;2023-07-24T11:38:58;97283.91;;;21.46;92.52
21824;BME280;11074;48.596;9.238;2023-07-24T11:41:26;97276.19;;;21.60;91.03
21824;BME280;11074;48.596;9.238;2023-07-24T11:43:52;97273.41;;;21.72;88.50
21824;BME280;11074;48.596;9.238;2023-07-24T11:46:26;97283.25;;;21.89;90.08
21824;BME280;11074;48.596;9.238;2023-07-24T11:48:52;97288.47;;;22.10;91.32
21824;BME280;11074;48.596;9.238;2023-07-24T11:51:21;97274.13;;;22.41;93.34
21824;BME280;11074;48.596;9.238;2023-07-24T11:53:46;97284.06;;;22.49;88.51
21824;BME280;11074;48.596;9.238;2023-07-24T11:56:15;97289.97;;;22.66;90.16
21824;BME280;11074;48.596;9.238;2023-07-24T11:58:41;97285.75;;;22.69;85.69
21824;BME280;11074;48.596;9.238;2023-07-24T12:01:06;97294.03;;;22.72;84.15
21824;BME280;11074;48.596;9.238;2023-07-24T12:03:32;97293.13;;;22.68;84.54
21824;BME280;11074;48.596;9.238;2023-07-24T12:05:58;97297.47;;;22.69;84.39
21824;BME280;11074;48.596;9.238;2023-07-24T12:08:33;97305.78;;;22.76;83.34
21824;BME280;11074;48.596;9.238;2023-07-24T12:11:00;97316.44;;;22.81;80.98
21824;BME280;11074;48.596;9.238;2023-07-24T12:13:26;97309.84;;;22.82;82.03
21824;BME280;11074;48.596;9.238;2023-07-24T12:15:51;97313.09;;;22.88;82.41
21824;BME280;11074;48.596;9.238;2023-07-24T12:18:17;97325.41;;;22.98;80.56
21824;BME280;11074;48.596;9.238;2023-07-24T12:20:43;97331.81;;;23.05;79.84
21824;BME280;11074;48.596;9.238;2023-07-24T12:23:08;97333.94;;;23.12;80.18
21824;BME280;11074;48.596;9.238;2023-07-24T12:25:34;97325.19;;;23.22;79.23
21824;BME280;11074;48.596;9.238;2023-07-24T12:28:00;97315.59;;;23.28;77.10
21824;BME280;11074;48.596;9.238;2023-07-24T12:30:25;97318.94;;;23.37;77.05
21824;BME280;11074;48.596;9.238;2023-07-24T12:32:51;97311.91;;;23.36;76.70
21824;BME280;11074;48.596;9.238;2023-07-24T12:35:17;97320.25;;;23.43;76.61
21824;BME280;11074;48.596;9.238;2023-07-24T12:37:44;97306.91;;;23.38;74.72
21824;BME280;11074;48.596;9.238;2023-07-24T12:40:11;97310.66;;;23.33;75.75
21824;BME280;11074;48.596;9.238;2023-07-24T12:42:37;97310.41;;;23.38;75.61
21824;BME280;11074;48.596;9.238;2023-07-24T12:45:03;97299.03;;;23.52;74.83
21824;BME280;11074;48.596;9.238;2023-07-24T12:47:30;97294.72;;;23.51;74.20
21824;BME280;11074;48.596;9.238;2023-07-24T12:49:57;97278.72;;;23.49;73.43
21824;BME280;11074;48.596;9.238;2023-07-24T12:52:23;97269.56;;;23.42;72.90
21824;BME280;11074;48.596;9.238;2023-07-24T12:54:50;97272.22;;;23.38;73.21
21824;BME280;11074;48.596;9.238;2023-07-24T12:57:16;97269.22;;;23.43;73.72
21824;BME280;11074;48.596;9.238;2023-07-24T12:59:41;97254.44;;;23.44;73.63
21824;BME280;11074;48.596;9.238;2023-07-24T13:02:07;97247.47;;;23.47;74.76
21824;BME280;11074;48.596;9.238;2023-07-24T13:04:33;97244.78;;;23.50;74.03